sensor_id;sensor_type;location;lat;lon;timestamp;P1;durP1;ratioP1;P2;durP2;ratioP2
56073;SDS011;41950;55.840;37.442;2023-05-07T00:00:02;6.15;;;3.72;;
56073;SDS011;41950;55.840;37.442;2023-05-07T00:02:33;5.95;;;3.60;;
56073;SDS011;41950;55.840;37.442;2023-05-07T00:04:59;6.68;;;3.97;;
56073;SDS011;41950;55.840;37.442;2023-05-07T00:07:25;6.28;;;3.72;;
56073;SDS011;41950;55.840;37.442;2023-05-07T00:09:50;5.50;;;3.47;;
56073;SDS011;41950;55.840;37.442;2023-05-07T00:12:16;5.50;;;3.35;;
56073;SDS011;41950;55.840;37.442;2023-05-07T00:14:42;5.95;;;3.60;;
56073;SDS011;41950;55.840;37.442;2023-05-07T00:17:08;4.53;;;3.20;;
56073;SDS011;41950;55.840;37.442;2023-05-07T00:19:33;5.43;;;3.40;;
56073;SDS011;41950;55.840;37.442;2023-05-07T00:21:59;6.18;;;3.22;;
56073;SDS011;41950;55.840;37.442;2023-05-07T00:24:25;5.32;;;3.65;;
56073;SDS011;41950;55.840;37.442;2023-05-07T00:26:51;5.75;;;3.40;;
56073;SDS011;41950;55.840;37.442;2023-05-07T00:29:17;4.60;;;3.20;;
56073;SDS011;41950;55.840;37.442;2023-05-07T00:31:43;5.07;;;3.60;;
56073;SDS011;41950;55.840;37.442;2023-05-07T00:34:09;6.45;;;3.58;;
56073;SDS011;41950;55.840;37.442;2023-05-07T00:36:35;6.60;;;3.45;;
56073;SDS011;41950;55.840;37.442;2023-05-07T00:39:01;5.38;;;2.97;;
56073;SDS011;41950;55.840;37.442;2023-05-07T00:41:28;5.20;;;3.30;;
56073;SDS011;41950;55.840;37.442;2023-05-07T00:43:55;6.50;;;3.13;;
56073;SDS011;41950;55.840;37.442;2023-05-07T00:46:21;5.32;;;3.63;;
56073;SDS011;41950;55.840;37.442;2023-05-07T00:48:48;4.90;;;3.35;;
56073;SDS011;41950;55.840;37.442;2023-05-07T00:51:15;5.68;;;3.88;;
56073;SDS011;41950;55.840;37.442;2023-05-07T00:53:42;4.88;;;3.00;;
56073;SDS011;41950;55.840;37.442;2023-05-07T00:56:08;5.95;;;3.15;;
56073;SDS011;41950;55.840;37.442;2023-05-07T00:58:35;5.10;;;3.40;;
56073;SDS011;41950;55.840;37.442;2023-05-07T01:01:01;4.85;;;3.10;;
56073;SDS011;41950;55.840;37.442;2023-05-07T01:03:27;5.85;;;3.63;;
56073;SDS011;41950;55.840;37.442;2023-05-07T01:05:53;5.10;;;3.83;;
56073;SDS011;41950;55.840;37.442;2023-05-07T01:08:22;5.35;;;3.35;;
56073;SDS011;41950;55.840;37.442;2023-05-07T01:10:51;6.22;;;3.83;;
56073;SDS011;41950;55.840;37.442;2023-05-07T01:13:18;5.43;;;3.72;;
56073;SDS011;41950;55.840;37.442;2023-05-07T01:15:45;6.75;;;3.60;;
56073;SDS011;41950;55.840;37.442;2023-05-07T01:18:11;4.68;;;3.40;;
56073;SDS011;41950;55.840;37.442;2023-05-07T01:20:37;6.47;;;3.63;;
56073;SDS011;41950;55.840;37.442;2023-05-07T01:23:03;5.57;;;3.80;;
56073;SDS011;41950;55.840;37.442;2023-05-07T01:25:29;5.35;;;3.50;;
56073;SDS011;41950;55.840;37.442;2023-05-07T01:27:57;5.38;;;3.65;;
56073;SDS011;41950;55.840;37.442;2023-05-07T01:30:25;5.80;;;3.60;;
56073;SDS011;41950;55.840;37.442;2023-05-07T01:33:11;6.50;;;3.47;;
56073;SDS011;41950;55.840;37.442;2023-05-07T01:35:42;7.30;;;4.07;;
56073;SDS011;41950;55.840;37.442;2023-05-07T01:38:10;5.15;;;3.53;;
56073;SDS011;41950;55.840;37.442;2023-05-07T01:40:37;7.72;;;4.25;;
56073;SDS011;41950;55.840;37.442;2023-05-07T01:43:03;6.05;;;4.18;;
56073;SDS011;41950;55.840;37.442;2023-05-07T01:45:30;7.75;;;4.90;;
56073;SDS011;41950;55.840;37.442;2023-05-07T01:47:58;6.82;;;5.15;;
56073;SDS011;41950;55.840;37.442;2023-05-07T01:50:24;12.48;;;5.60;;
56073;SDS011;41950;55.840;37.442;2023-05-07T01:52:51;7.63;;;5.47;;
56073;SDS011;41950;55.840;37.442;2023-05-07T01:55:17;8.05;;;6.00;;
56073;SDS011;41950;55.840;37.442;2023-05-07T01:57:43;8.38;;;5.88;;
56073;SDS011;41950;55.840;37.442;2023-05-07T02:00:09;9.18;;;6.28;;
56073;SDS011;41950;55.840;37.442;2023-05-07T02:02:35;8.98;;;5.85;;
56073;SDS011;41950;55.840;37.442;2023-05-07T02:05:01;7.35;;;5.90;;
56073;SDS011;41950;55.840;37.442;2023-05-07T02:07:29;10.00;;;6.03;;
56073;SDS011;41950;55.840;37.442;2023-05-07T02:09:55;7.35;;;5.90;;
56073;SDS011;41950;55.840;37.442;2023-05-07T02:12:21;7.05;;;5.43;;
56073;SDS011;41950;55.840;37.442;2023-05-07T02:14:47;7.57;;;5.20;;
56073;SDS011;41950;55.840;37.442;2023-05-07T02:17:13;6.40;;;5.10;;
56073;SDS011;41950;55.840;37.442;2023-05-07T02:19:39;8.18;;;5.65;;
56073;SDS011;41950;55.840;37.442;2023-05-07T02:22:05;7.30;;;4.93;;
56073;SDS011;41950;55.840;37.442;2023-05-07T02:24:30;8.13;;;5.20;;
56073;SDS011;41950;55.840;37.442;2023-05-07T02:26:56;6.50;;;4.05;;
56073;SDS011;41950;55.840;37.442;2023-05-07T02:29:22;7.03;;;3.97;;
56073;SDS011;41950;55.840;37.442;2023-05-07T02:31:47;5.47;;;4.30;;
56073;SDS011;41950;55.840;37.442;2023-05-07T02:34:18;5.50;;;4.00;;
56073;SDS011;41950;55.840;37.442;2023-05-07T02:36:44;6.72;;;3.30;;
56073;SDS011;41950;55.840;37.442;2023-05-07T02:39:10;5.88;;;3.50;;
56073;SDS011;41950;55.840;37.442;2023-05-07T02:41:37;4.47;;;3.15;;
56073;SDS011;41950;55.840;37.442;2023-05-07T02:44:03;4.72;;;3.40;;
56073;SDS011;41950;55.840;37.442;2023-05-07T02:46:29;4.60;;;3.10;;
56073;SDS011;41950;55.840;37.442;2023-05-07T02:48:55;6.25;;;3.78;;
56073;SDS011;41950;55.840;37.442;2023-05-07T02:51:21;5.38;;;3.13;;
56073;SDS011;41950;55.840;37.442;2023-05-07T02:53:47;4.45;;;3.00;;
56073;SDS011;41950;55.840;37.442;2023-05-07T02:56:13;6.18;;;3.65;;
56073;SDS011;41950;55.840;37.442;2023-05-07T02:58:39;5.72;;;3.33;;
56073;SDS011;41950;55.840;37.442;2023-05-07T03:01:05;5.50;;;3.58;;
56073;SDS011;41950;55.840;37.442;2023-05-07T03:03:31;5.40;;;3.22;;
56073;SDS011;41950;55.840;37.442;2023-05-07T03:05:57;4.45;;;2.92;;
56073;SDS011;41950;55.840;37.442;2023-05-07T03:08:23;5.95;;;3.25;;
56073;SDS011;41950;55.840;37.442;2023-05-07T03:10:50;4.50;;;2.90;;
56073;SDS011;41950;55.840;37.442;2023-05-07T03:13:15;5.68;;;2.97;;
56073;SDS011;41950;55.840;37.442;2023-05-07T03:15:41;4.97;;;3.00;;
56073;SDS011;41950;55.840;37.442;2023-05-07T03:18:07;5.25;;;3.33;;
56073;SDS011;41950;55.840;37.442;2023-05-07T03:20:33;4.60;;;3.00;;
56073;SDS011;41950;55.840;37.442;2023-05-07T03:22:59;4.28;;;3.15;;
56073;SDS011;41950;55.840;37.442;2023-05-07T03:25:25;4.47;;;3.00;;
56073;SDS011;41950;55.840;37.442;2023-05-07T03:27:51;4.35;;;2.92;;
56073;SDS011;41950;55.840;37.442;2023-05-07T03:30:16;4.45;;;2.30;;
56073;SDS011;41950;55.840;37.442;2023-05-07T03:32:42;4.43;;;2.38;;
56073;SDS011;41950;55.840;37.442;2023-05-07T03:35:08;4.18;;;2.80;;
56073;SDS011;41950;55.840;37.442;2023-05-07T03:37:34;4.82;;;2.85;;
56073;SDS011;41950;55.840;37.442;2023-05-07T03:39:59;4.53;;;2.55;;
56073;SDS011;41950;55.840;37.442;2023-05-07T03:42:25;4.40;;;2.60;;
56073;SDS011;41950;55.840;37.442;2023-05-07T03:44:51;4.32;;;2.78;;
56073;SDS011;41950;55.840;37.442;2023-05-07T03:47:16;5.47;;;2.75;;
56073;SDS011;41950;55.840;37.442;2023-05-07T03:49:42;4.32;;;2.92;;
56073;SDS011;41950;55.840;37.442;2023-05-07T03:52:08;4.85;;;3.03;;
56073;SDS011;41950;55.840;37.442;2023-05-07T03:54:34;5.18;;;3.40;;
56073;SDS011;41950;55.840;37.442;2023-05-07T03:56:59;4.72;;;3.03;;
56073;SDS011;41950;55.840;37.442;2023-05-07T03:59:25;4.63;;;2.85;;
56073;SDS011;41950;55.840;37.442;2023-05-07T04:01:51;6.32;;;3.30;;
56073;SDS011;41950;55.840;37.442;2023-05-07T04:04:17;4.10;;;2.38;;
56073;SDS011;41950;55.840;37.442;2023-05-07T04:06:43;3.97;;;2.60;;
56073;SDS011;41950;55.840;37.442;2023-05-07T04:09:08;4.97;;;3.08;;
56073;SDS011;41950;55.840;37.442;2023-05-07T04:11:35;4.10;;;2.47;;
56073;SDS011;41950;55.840;37.442;2023-05-07T04:14:01;4.35;;;2.55;;
56073;SDS011;41950;55.840;37.442;2023-05-07T04:16:27;5.47;;;2.90;;
56073;SDS011;41950;55.840;37.442;2023-05-07T04:18:52;5.38;;;2.83;;
56073;SDS011;41950;55.840;37.442;2023-05-07T04:21:19;4.82;;;2.40;;
56073;SDS011;41950;55.840;37.442;2023-05-07T04:23:46;4.60;;;2.47;;
56073;SDS011;41950;55.840;37.442;2023-05-07T04:26:13;3.47;;;2.22;;
56073;SDS011;41950;55.840;37.442;2023-05-07T04:28:39;3.88;;;2.38;;
56073;SDS011;41950;55.840;37.442;2023-05-07T04:31:05;3.70;;;2.60;;
56073;SDS011;41950;55.840;37.442;2023-05-07T04:33:31;4.15;;;2.22;;
56073;SDS011;41950;55.840;37.442;2023-05-07T04:35:58;4.40;;;2.40;;
56073;SDS011;41950;55.840;37.442;2023-05-07T04:38:31;3.50;;;2.10;;
56073;SDS011;41950;55.840;37.442;2023-05-07T04:40:57;3.83;;;2.17;;
56073;SDS011;41950;55.840;37.442;2023-05-07T04:43:23;5.00;;;2.53;;
56073;SDS011;41950;55.840;37.442;2023-05-07T04:45:50;5.70;;;2.30;;
56073;SDS011;41950;55.840;37.442;2023-05-07T04:48:17;3.28;;;1.70;;
56073;SDS011;41950;55.840;37.442;2023-05-07T04:50:46;3.55;;;1.60;;
56073;SDS011;41950;55.840;37.442;2023-05-07T04:53:12;2.85;;;1.60;;
56073;SDS011;41950;55.840;37.442;2023-05-07T04:55:38;3.60;;;1.90;;
56073;SDS011;41950;55.840;37.442;2023-05-07T04:58:04;3.38;;;1.90;;
56073;SDS011;41950;55.840;37.442;2023-05-07T05:00:30;2.97;;;1.30;;
56073;SDS011;41950;55.840;37.442;2023-05-07T05:02:56;3.80;;;2.25;;
56073;SDS011;41950;55.840;37.442;2023-05-07T05:05:22;2.80;;;1.52;;
56073;SDS011;41950;55.840;37.442;2023-05-07T05:07:47;3.75;;;1.65;;
56073;SDS011;41950;55.840;37.442;2023-05-07T05:10:13;3.92;;;0.65;;
56073;SDS011;41950;55.840;37.442;2023-05-07T05:12:39;2.85;;;1.60;;
56073;SDS011;41950;55.840;37.442;2023-05-07T05:15:05;3.03;;;1.45;;
56073;SDS011;41950;55.840;37.442;2023-05-07T05:17:31;2.60;;;1.52;;
56073;SDS011;41950;55.840;37.442;2023-05-07T05:19:59;3.42;;;1.40;;
56073;SDS011;41950;55.840;37.442;2023-05-07T05:22:25;3.13;;;1.42;;
56073;SDS011;41950;55.840;37.442;2023-05-07T05:24:51;2.38;;;1.25;;
56073;SDS011;41950;55.840;37.442;2023-05-07T05:27:17;2.88;;;1.58;;
56073;SDS011;41950;55.840;37.442;2023-05-07T05:29:43;2.65;;;1.30;;
56073;SDS011;41950;55.840;37.442;2023-05-07T05:32:08;2.80;;;1.70;;
56073;SDS011;41950;55.840;37.442;2023-05-07T05:34:35;3.80;;;1.70;;
56073;SDS011;41950;55.840;37.442;2023-05-07T05:37:00;3.17;;;1.60;;
56073;SDS011;41950;55.840;37.442;2023-05-07T05:39:26;3.20;;;1.60;;
56073;SDS011;41950;55.840;37.442;2023-05-07T05:41:52;2.60;;;1.50;;
56073;SDS011;41950;55.840;37.442;2023-05-07T05:44:18;2.65;;;1.40;;
56073;SDS011;41950;55.840;37.442;2023-05-07T05:46:43;2.47;;;1.38;;
56073;SDS011;41950;55.840;37.442;2023-05-07T05:49:09;2.03;;;1.00;;
56073;SDS011;41950;55.840;37.442;2023-05-07T05:51:35;2.50;;;1.20;;
56073;SDS011;41950;55.840;37.442;2023-05-07T05:54:01;2.85;;;1.58;;
56073;SDS011;41950;55.840;37.442;2023-05-07T05:56:26;2.88;;;1.48;;
56073;SDS011;41950;55.840;37.442;2023-05-07T05:58:52;3.90;;;1.50;;
56073;SDS011;41950;55.840;37.442;2023-05-07T06:01:18;2.63;;;1.20;;
56073;SDS011;41950;55.840;37.442;2023-05-07T06:03:44;1.65;;;0.70;;
56073;SDS011;41950;55.840;37.442;2023-05-07T06:06:10;2.17;;;1.10;;
56073;SDS011;41950;55.840;37.442;2023-05-07T06:08:36;3.78;;;1.63;;
56073;SDS011;41950;55.840;37.442;2023-05-07T06:11:01;2.83;;;1.48;;
56073;SDS011;41950;55.840;37.442;2023-05-07T06:13:28;3.33;;;1.42;;
56073;SDS011;41950;55.840;37.442;2023-05-07T06:15:53;2.65;;;1.20;;
56073;SDS011;41950;55.840;37.442;2023-05-07T06:18:19;2.40;;;1.10;;
56073;SDS011;41950;55.840;37.442;2023-05-07T06:20:45;2.55;;;1.25;;
56073;SDS011;41950;55.840;37.442;2023-05-07T06:23:11;2.03;;;0.95;;
56073;SDS011;41950;55.840;37.442;2023-05-07T06:25:36;2.75;;;1.60;;
56073;SDS011;41950;55.840;37.442;2023-05-07T06:28:02;2.30;;;1.15;;
56073;SDS011;41950;55.840;37.442;2023-05-07T06:30:28;3.28;;;1.48;;
56073;SDS011;41950;55.840;37.442;2023-05-07T06:32:53;3.80;;;1.27;;
56073;SDS011;41950;55.840;37.442;2023-05-07T06:35:19;1.90;;;1.02;;
56073;SDS011;41950;55.840;37.442;2023-05-07T06:37:45;2.03;;;1.00;;
56073;SDS011;41950;55.840;37.442;2023-05-07T06:40:11;2.60;;;1.10;;
56073;SDS011;41950;55.840;37.442;2023-05-07T06:42:37;2.20;;;1.10;;
56073;SDS011;41950;55.840;37.442;2023-05-07T06:45:03;2.83;;;1.10;;
56073;SDS011;41950;55.840;37.442;2023-05-07T06:47:30;3.10;;;1.20;;
56073;SDS011;41950;55.840;37.442;2023-05-07T06:49:56;2.90;;;1.13;;
56073;SDS011;41950;55.840;37.442;2023-05-07T06:52:22;3.20;;;1.58;;
56073;SDS011;41950;55.840;37.442;2023-05-07T06:54:47;2.83;;;1.30;;
56073;SDS011;41950;55.840;37.442;2023-05-07T06:57:13;2.50;;;1.20;;
56073;SDS011;41950;55.840;37.442;2023-05-07T06:59:39;2.45;;;1.00;;
56073;SDS011;41950;55.840;37.442;2023-05-07T07:02:05;2.80;;;0.80;;
56073;SDS011;41950;55.840;37.442;2023-05-07T07:04:31;2.80;;;1.10;;
56073;SDS011;41950;55.840;37.442;2023-05-07T07:06:57;2.13;;;0.90;;
56073;SDS011;41950;55.840;37.442;2023-05-07T07:09:22;2.80;;;1.20;;
56073;SDS011;41950;55.840;37.442;2023-05-07T07:11:48;1.85;;;0.90;;
56073;SDS011;41950;55.840;37.442;2023-05-07T07:14:14;2.33;;;0.98;;
56073;SDS011;41950;55.840;37.442;2023-05-07T07:16:40;3.10;;;1.05;;
56073;SDS011;41950;55.840;37.442;2023-05-07T07:19:06;3.42;;;1.13;;
56073;SDS011;41950;55.840;37.442;2023-05-07T07:21:32;3.00;;;1.10;;
56073;SDS011;41950;55.840;37.442;2023-05-07T07:23:57;4.03;;;0.90;;
56073;SDS011;41950;55.840;37.442;2023-05-07T07:26:23;2.08;;;1.10;;
56073;SDS011;41950;55.840;37.442;2023-05-07T07:28:49;3.90;;;1.00;;
56073;SDS011;41950;55.840;37.442;2023-05-07T07:31:15;1.75;;;0.98;;
56073;SDS011;41950;55.840;37.442;2023-05-07T07:33:40;2.00;;;0.85;;
56073;SDS011;41950;55.840;37.442;2023-05-07T07:36:06;2.05;;;0.80;;
56073;SDS011;41950;55.840;37.442;2023-05-07T07:38:32;2.80;;;1.20;;
56073;SDS011;41950;55.840;37.442;2023-05-07T07:40:59;2.15;;;1.10;;
56073;SDS011;41950;55.840;37.442;2023-05-07T07:43:25;2.38;;;1.10;;
56073;SDS011;41950;55.840;37.442;2023-05-07T07:45:51;2.35;;;1.10;;
56073;SDS011;41950;55.840;37.442;2023-05-07T07:48:17;2.50;;;1.25;;
56073;SDS011;41950;55.840;37.442;2023-05-07T07:50:43;1.15;;;0.63;;
56073;SDS011;41950;55.840;37.442;2023-05-07T07:53:08;3.05;;;1.20;;
56073;SDS011;41950;55.840;37.442;2023-05-07T07:55:38;3.33;;;0.93;;
56073;SDS011;41950;55.840;37.442;2023-05-07T08:00:32;2.50;;;1.23;;
56073;SDS011;41950;55.840;37.442;2023-05-07T08:02:58;2.58;;;1.10;;
56073;SDS011;41950;55.840;37.442;2023-05-07T08:05:24;4.38;;;1.00;;
56073;SDS011;41950;55.840;37.442;2023-05-07T08:07:50;3.10;;;0.77;;
56073;SDS011;41950;55.840;37.442;2023-05-07T08:10:18;2.20;;;0.88;;
56073;SDS011;41950;55.840;37.442;2023-05-07T08:12:50;2.08;;;0.90;;
56073;SDS011;41950;55.840;37.442;2023-05-07T08:15:19;2.53;;;0.80;;
56073;SDS011;41950;55.840;37.442;2023-05-07T08:17:45;2.00;;;1.00;;
56073;SDS011;41950;55.840;37.442;2023-05-07T08:20:11;2.13;;;1.10;;
56073;SDS011;41950;55.840;37.442;2023-05-07T08:22:36;2.15;;;0.90;;
56073;SDS011;41950;55.840;37.442;2023-05-07T08:25:02;3.03;;;1.02;;
56073;SDS011;41950;55.840;37.442;2023-05-07T08:27:29;2.05;;;0.90;;
56073;SDS011;41950;55.840;37.442;2023-05-07T08:29:54;2.33;;;0.70;;
56073;SDS011;41950;55.840;37.442;2023-05-07T08:32:20;2.50;;;0.80;;
56073;SDS011;41950;55.840;37.442;2023-05-07T08:34:47;2.17;;;0.80;;
56073;SDS011;41950;55.840;37.442;2023-05-07T08:37:13;3.05;;;0.98;;
56073;SDS011;41950;55.840;37.442;2023-05-07T08:39:38;2.88;;;0.75;;
56073;SDS011;41950;55.840;37.442;2023-05-07T08:42:04;2.40;;;0.80;;
56073;SDS011;41950;55.840;37.442;2023-05-07T08:44:33;1.85;;;0.80;;
56073;SDS011;41950;55.840;37.442;2023-05-07T08:47:03;4.43;;;0.82;;
56073;SDS011;41950;55.840;37.442;2023-05-07T08:49:35;2.72;;;0.85;;
56073;SDS011;41950;55.840;37.442;2023-05-07T08:52:01;1.92;;;0.80;;
56073;SDS011;41950;55.840;37.442;2023-05-07T08:54:27;2.72;;;0.90;;
56073;SDS011;41950;55.840;37.442;2023-05-07T08:56:54;3.10;;;0.80;;
56073;SDS011;41950;55.840;37.442;2023-05-07T08:59:20;1.58;;;0.73;;
56073;SDS011;41950;55.840;37.442;2023-05-07T09:01:46;2.10;;;0.90;;
56073;SDS011;41950;55.840;37.442;2023-05-07T09:04:12;3.88;;;1.30;;
56073;SDS011;41950;55.840;37.442;2023-05-07T09:06:38;2.45;;;0.80;;
56073;SDS011;41950;55.840;37.442;2023-05-07T09:09:07;1.45;;;0.80;;
56073;SDS011;41950;55.840;37.442;2023-05-07T09:11:33;1.77;;;0.80;;
56073;SDS011;41950;55.840;37.442;2023-05-07T09:13:59;3.75;;;1.00;;
56073;SDS011;41950;55.840;37.442;2023-05-07T09:16:26;1.45;;;0.88;;
56073;SDS011;41950;55.840;37.442;2023-05-07T09:18:52;2.08;;;0.90;;
56073;SDS011;41950;55.840;37.442;2023-05-07T09:21:20;1.85;;;0.82;;
56073;SDS011;41950;55.840;37.442;2023-05-07T09:23:53;2.33;;;1.08;;
56073;SDS011;41950;55.840;37.442;2023-05-07T09:26:21;1.70;;;0.70;;
56073;SDS011;41950;55.840;37.442;2023-05-07T09:28:47;1.92;;;0.70;;
56073;SDS011;41950;55.840;37.442;2023-05-07T09:31:13;2.65;;;1.00;;
56073;SDS011;41950;55.840;37.442;2023-05-07T09:33:40;3.13;;;0.98;;
56073;SDS011;41950;55.840;37.442;2023-05-07T09:36:06;3.92;;;1.10;;
56073;SDS011;41950;55.840;37.442;2023-05-07T09:38:34;3.03;;;0.98;;
56073;SDS011;41950;55.840;37.442;2023-05-07T09:41:04;2.20;;;1.00;;
56073;SDS011;41950;55.840;37.442;2023-05-07T09:43:35;1.83;;;0.87;;
56073;SDS011;41950;55.840;37.442;2023-05-07T09:46:02;1.75;;;0.80;;
56073;SDS011;41950;55.840;37.442;2023-05-07T09:48:31;2.22;;;0.93;;
56073;SDS011;41950;55.840;37.442;2023-05-07T09:51:01;2.75;;;0.70;;
56073;SDS011;41950;55.840;37.442;2023-05-07T09:53:30;2.20;;;0.80;;
56073;SDS011;41950;55.840;37.442;2023-05-07T09:55:58;2.20;;;1.00;;
56073;SDS011;41950;55.840;37.442;2023-05-07T09:58:25;1.85;;;0.90;;
56073;SDS011;41950;55.840;37.442;2023-05-07T10:00:52;1.85;;;0.90;;
56073;SDS011;41950;55.840;37.442;2023-05-07T10:03:18;2.92;;;0.80;;
56073;SDS011;41950;55.840;37.442;2023-05-07T10:05:46;1.70;;;0.75;;
56073;SDS011;41950;55.840;37.442;2023-05-07T10:08:14;1.90;;;0.90;;
56073;SDS011;41950;55.840;37.442;2023-05-07T10:10:42;1.88;;;0.90;;
56073;SDS011;41950;55.840;37.442;2023-05-07T10:13:08;2.67;;;1.02;;
56073;SDS011;41950;55.840;37.442;2023-05-07T10:15:36;2.55;;;1.10;;
56073;SDS011;41950;55.840;37.442;2023-05-07T10:18:03;2.08;;;0.90;;
56073;SDS011;41950;55.840;37.442;2023-05-07T10:20:32;3.28;;;1.10;;
56073;SDS011;41950;55.840;37.442;2023-05-07T10:23:04;2.35;;;0.90;;
56073;SDS011;41950;55.840;37.442;2023-05-07T10:25:31;2.35;;;1.00;;
56073;SDS011;41950;55.840;37.442;2023-05-07T10:27:59;2.85;;;1.10;;
56073;SDS011;41950;55.840;37.442;2023-05-07T10:33:26;2.83;;;1.10;;
56073;SDS011;41950;55.840;37.442;2023-05-07T10:35:57;2.40;;;1.00;;
56073;SDS011;41950;55.840;37.442;2023-05-07T10:38:26;1.55;;;0.80;;
56073;SDS011;41950;55.840;37.442;2023-05-07T10:40:53;1.75;;;0.85;;
56073;SDS011;41950;55.840;37.442;2023-05-07T10:43:19;1.75;;;0.80;;
56073;SDS011;41950;55.840;37.442;2023-05-07T10:51:28;2.78;;;1.10;;
56073;SDS011;41950;55.840;37.442;2023-05-07T10:56:40;1.92;;;0.90;;
56073;SDS011;41950;55.840;37.442;2023-05-07T10:59:50;2.53;;;1.00;;
56073;SDS011;41950;55.840;37.442;2023-05-07T11:02:00;2.85;;;1.30;;
56073;SDS011;41950;55.840;37.442;2023-05-07T11:04:29;3.55;;;1.10;;
56073;SDS011;41950;55.840;37.442;2023-05-07T11:15:09;1.85;;;0.90;;
56073;SDS011;41950;55.840;37.442;2023-05-07T11:17:55;2.90;;;0.95;;
56073;SDS011;41950;55.840;37.442;2023-05-07T11:24:08;2.00;;;1.25;;
56073;SDS011;41950;55.840;37.442;2023-05-07T11:26:13;2.50;;;0.73;;
56073;SDS011;41950;55.840;37.442;2023-05-07T11:28:41;2.30;;;1.10;;
56073;SDS011;41950;55.840;37.442;2023-05-07T11:31:09;3.45;;;1.10;;
56073;SDS011;41950;55.840;37.442;2023-05-07T11:33:35;3.42;;;1.00;;
56073;SDS011;41950;55.840;37.442;2023-05-07T11:36:03;1.98;;;1.02;;
56073;SDS011;41950;55.840;37.442;2023-05-07T11:38:36;2.45;;;1.20;;
56073;SDS011;41950;55.840;37.442;2023-05-07T11:41:03;3.05;;;1.10;;
56073;SDS011;41950;55.840;37.442;2023-05-07T11:43:30;2.30;;;1.10;;
56073;SDS011;41950;55.840;37.442;2023-05-07T11:46:10;2.10;;;1.00;;
56073;SDS011;41950;55.840;37.442;2023-05-07T11:48:38;2.28;;;0.93;;
56073;SDS011;41950;55.840;37.442;2023-05-07T11:51:05;4.20;;;1.27;;
56073;SDS011;41950;55.840;37.442;2023-05-07T11:53:37;2.03;;;0.90;;
56073;SDS011;41950;55.840;37.442;2023-05-07T11:58:33;4.80;;;0.90;;
56073;SDS011;41950;55.840;37.442;2023-05-07T12:00:59;1.80;;;0.80;;
56073;SDS011;41950;55.840;37.442;2023-05-07T12:03:25;2.05;;;0.80;;
56073;SDS011;41950;55.840;37.442;2023-05-07T12:05:51;1.98;;;0.90;;
56073;SDS011;41950;55.840;37.442;2023-05-07T12:08:17;2.08;;;0.90;;
56073;SDS011;41950;55.840;37.442;2023-05-07T12:10:44;2.65;;;1.10;;
56073;SDS011;41950;55.840;37.442;2023-05-07T12:13:17;2.83;;;1.05;;
56073;SDS011;41950;55.840;37.442;2023-05-07T12:15:45;2.58;;;1.20;;
56073;SDS011;41950;55.840;37.442;2023-05-07T12:18:14;3.25;;;1.40;;
56073;SDS011;41950;55.840;37.442;2023-05-07T12:20:40;2.33;;;1.20;;
56073;SDS011;41950;55.840;37.442;2023-05-07T12:23:06;3.17;;;1.13;;
56073;SDS011;41950;55.840;37.442;2023-05-07T12:25:36;2.05;;;1.00;;
56073;SDS011;41950;55.840;37.442;2023-05-07T12:28:03;3.80;;;1.35;;
56073;SDS011;41950;55.840;37.442;2023-05-07T12:30:48;3.15;;;1.30;;
56073;SDS011;41950;55.840;37.442;2023-05-07T12:33:19;2.20;;;1.02;;
56073;SDS011;41950;55.840;37.442;2023-05-07T12:35:50;3.53;;;1.48;;
56073;SDS011;41950;55.840;37.442;2023-05-07T12:38:16;2.38;;;1.05;;
56073;SDS011;41950;55.840;37.442;2023-05-07T12:40:44;2.28;;;1.08;;
56073;SDS011;41950;55.840;37.442;2023-05-07T12:43:28;2.47;;;1.05;;
56073;SDS011;41950;55.840;37.442;2023-05-07T12:45:55;4.15;;;1.10;;
56073;SDS011;41950;55.840;37.442;2023-05-07T12:48:22;2.17;;;1.15;;
56073;SDS011;41950;55.840;37.442;2023-05-07T12:50:55;2.42;;;0.90;;
56073;SDS011;41950;55.840;37.442;2023-05-07T12:53:23;3.17;;;1.20;;
56073;SDS011;41950;55.840;37.442;2023-05-07T12:55:51;2.38;;;1.00;;
56073;SDS011;41950;55.840;37.442;2023-05-07T12:58:25;3.35;;;1.13;;
56073;SDS011;41950;55.840;37.442;2023-05-07T13:00:52;2.38;;;1.13;;
56073;SDS011;41950;55.840;37.442;2023-05-07T13:03:26;3.17;;;1.25;;
56073;SDS011;41950;55.840;37.442;2023-05-07T13:05:54;2.22;;;1.00;;
56073;SDS011;41950;55.840;37.442;2023-05-07T13:08:26;2.85;;;1.13;;
56073;SDS011;41950;55.840;37.442;2023-05-07T13:10:57;2.72;;;1.30;;
56073;SDS011;41950;55.840;37.442;2023-05-07T13:13:34;3.45;;;1.17;;
56073;SDS011;41950;55.840;37.442;2023-05-07T13:16:01;3.65;;;1.48;;
56073;SDS011;41950;55.840;37.442;2023-05-07T13:18:31;4.72;;;1.60;;
56073;SDS011;41950;55.840;37.442;2023-05-07T13:20:58;2.58;;;1.02;;
56073;SDS011;41950;55.840;37.442;2023-05-07T13:23:25;4.55;;;1.30;;
56073;SDS011;41950;55.840;37.442;2023-05-07T13:25:51;3.70;;;1.30;;
56073;SDS011;41950;55.840;37.442;2023-05-07T13:28:21;2.63;;;1.40;;
56073;SDS011;41950;55.840;37.442;2023-05-07T13:30:47;3.13;;;1.50;;
56073;SDS011;41950;55.840;37.442;2023-05-07T13:33:13;3.05;;;1.40;;
56073;SDS011;41950;55.840;37.442;2023-05-07T13:35:40;3.60;;;1.20;;
56073;SDS011;41950;55.840;37.442;2023-05-07T13:38:06;2.88;;;1.30;;
56073;SDS011;41950;55.840;37.442;2023-05-07T13:40:33;2.50;;;1.30;;
56073;SDS011;41950;55.840;37.442;2023-05-07T13:42:59;2.10;;;1.00;;
56073;SDS011;41950;55.840;37.442;2023-05-07T13:45:27;3.08;;;1.40;;
56073;SDS011;41950;55.840;37.442;2023-05-07T13:47:55;1.95;;;1.02;;
56073;SDS011;41950;55.840;37.442;2023-05-07T13:50:21;2.42;;;1.13;;
56073;SDS011;41950;55.840;37.442;2023-05-07T13:52:47;3.92;;;1.30;;
56073;SDS011;41950;55.840;37.442;2023-05-07T13:55:20;2.47;;;1.20;;
56073;SDS011;41950;55.840;37.442;2023-05-07T13:57:47;2.60;;;1.13;;
56073;SDS011;41950;55.840;37.442;2023-05-07T14:02:45;3.33;;;1.30;;
56073;SDS011;41950;55.840;37.442;2023-05-07T14:05:11;2.60;;;1.23;;
56073;SDS011;41950;55.840;37.442;2023-05-07T14:07:38;2.58;;;1.20;;
56073;SDS011;41950;55.840;37.442;2023-05-07T14:10:04;2.63;;;0.82;;
56073;SDS011;41950;55.840;37.442;2023-05-07T14:12:32;2.80;;;1.30;;
56073;SDS011;41950;55.840;37.442;2023-05-07T14:14:58;2.80;;;1.30;;
56073;SDS011;41950;55.840;37.442;2023-05-07T14:17:25;2.67;;;1.42;;
56073;SDS011;41950;55.840;37.442;2023-05-07T14:19:52;2.72;;;1.42;;
56073;SDS011;41950;55.840;37.442;2023-05-07T14:22:20;3.95;;;1.60;;
56073;SDS011;41950;55.840;37.442;2023-05-07T14:24:47;2.85;;;1.30;;
56073;SDS011;41950;55.840;37.442;2023-05-07T14:27:14;2.92;;;1.30;;
56073;SDS011;41950;55.840;37.442;2023-05-07T14:29:40;2.63;;;1.10;;
56073;SDS011;41950;55.840;37.442;2023-05-07T14:32:06;3.00;;;1.33;;
56073;SDS011;41950;55.840;37.442;2023-05-07T14:34:32;2.70;;;1.35;;
56073;SDS011;41950;55.840;37.442;2023-05-07T14:36:57;4.00;;;1.50;;
56073;SDS011;41950;55.840;37.442;2023-05-07T14:39:25;3.58;;;1.52;;
56073;SDS011;41950;55.840;37.442;2023-05-07T14:41:51;4.38;;;1.40;;
56073;SDS011;41950;55.840;37.442;2023-05-07T14:44:17;3.15;;;1.35;;
56073;SDS011;41950;55.840;37.442;2023-05-07T14:46:43;3.20;;;1.30;;
56073;SDS011;41950;55.840;37.442;2023-05-07T14:49:08;2.75;;;0.90;;
56073;SDS011;41950;55.840;37.442;2023-05-07T14:51:44;3.08;;;1.15;;
56073;SDS011;41950;55.840;37.442;2023-05-07T14:54:11;3.70;;;1.27;;
56073;SDS011;41950;55.840;37.442;2023-05-07T14:56:38;4.38;;;1.23;;
56073;SDS011;41950;55.840;37.442;2023-05-07T14:59:04;3.17;;;1.23;;
56073;SDS011;41950;55.840;37.442;2023-05-07T15:01:30;3.10;;;1.27;;